sensor_id;sensor_type;location;lat;lon;timestamp;P1;durP1;ratioP1;P2;durP2;ratioP2
4698;SDS011;33708;49.466;11.176;2022-07-21T00:01:48;10.50;;;5.57;;
4698;SDS011;33708;49.466;11.176;2022-07-21T00:04:14;10.50;;;5.20;;
4698;SDS011;33708;49.466;11.176;2022-07-21T00:06:43;14.93;;;5.63;;
4698;SDS011;33708;49.466;11.176;2022-07-21T00:09:10;9.17;;;5.27;;
4698;SDS011;33708;49.466;11.176;2022-07-21T00:11:37;10.50;;;5.17;;
4698;SDS011;33708;49.466;11.176;2022-07-21T00:14:04;15.73;;;4.83;;
4698;SDS011;33708;49.466;11.176;2022-07-21T00:16:30;8.20;;;5.00;;
4698;SDS011;33708;49.466;11.176;2022-07-21T00:18:56;8.43;;;4.93;;
4698;SDS011;33708;49.466;11.176;2022-07-21T00:21:24;10.93;;;5.23;;
4698;SDS011;33708;49.466;11.176;2022-07-21T00:23:50;10.33;;;5.30;;
4698;SDS011;33708;49.466;11.176;2022-07-21T00:26:16;13.53;;;5.50;;
4698;SDS011;33708;49.466;11.176;2022-07-21T00:28:41;10.70;;;4.80;;
4698;SDS011;33708;49.466;11.176;2022-07-21T00:31:07;12.00;;;5.20;;
4698;SDS011;33708;49.466;11.176;2022-07-21T00:33:32;13.00;;;4.70;;
4698;SDS011;33708;49.466;11.176;2022-07-21T00:35:58;9.97;;;4.60;;
4698;SDS011;33708;49.466;11.176;2022-07-21T00:38:24;8.30;;;4.23;;
4698;SDS011;33708;49.466;11.176;2022-07-21T00:40:49;7.93;;;3.77;;
4698;SDS011;33708;49.466;11.176;2022-07-21T00:43:15;10.40;;;3.90;;
4698;SDS011;33708;49.466;11.176;2022-07-21T00:45:40;8.33;;;4.20;;
4698;SDS011;33708;49.466;11.176;2022-07-21T00:48:06;17.57;;;3.70;;
4698;SDS011;33708;49.466;11.176;2022-07-21T00:50:32;11.70;;;3.63;;
4698;SDS011;33708;49.466;11.176;2022-07-21T00:52:58;7.23;;;3.63;;
4698;SDS011;33708;49.466;11.176;2022-07-21T00:55:24;9.57;;;4.23;;
4698;SDS011;33708;49.466;11.176;2022-07-21T00:57:51;8.30;;;3.67;;
4698;SDS011;33708;49.466;11.176;2022-07-21T01:00:19;8.40;;;4.10;;
4698;SDS011;33708;49.466;11.176;2022-07-21T01:02:47;10.97;;;3.63;;
4698;SDS011;33708;49.466;11.176;2022-07-21T01:05:14;11.10;;;3.80;;
4698;SDS011;33708;49.466;11.176;2022-07-21T01:07:41;7.93;;;3.63;;
4698;SDS011;33708;49.466;11.176;2022-07-21T01:10:11;8.07;;;3.60;;
4698;SDS011;33708;49.466;11.176;2022-07-21T01:12:38;7.87;;;3.90;;
4698;SDS011;33708;49.466;11.176;2022-07-21T01:15:05;10.87;;;3.73;;
4698;SDS011;33708;49.466;11.176;2022-07-21T01:17:33;10.33;;;4.17;;
4698;SDS011;33708;49.466;11.176;2022-07-21T01:20:01;8.30;;;3.87;;
4698;SDS011;33708;49.466;11.176;2022-07-21T01:22:33;15.70;;;4.50;;
4698;SDS011;33708;49.466;11.176;2022-07-21T01:25:00;13.03;;;4.60;;
4698;SDS011;33708;49.466;11.176;2022-07-21T01:27:26;8.70;;;4.60;;
4698;SDS011;33708;49.466;11.176;2022-07-21T01:29:56;11.13;;;4.93;;
4698;SDS011;33708;49.466;11.176;2022-07-21T01:32:22;11.73;;;5.50;;
4698;SDS011;33708;49.466;11.176;2022-07-21T01:34:48;12.83;;;4.90;;
4698;SDS011;33708;49.466;11.176;2022-07-21T01:37:14;8.77;;;4.67;;
4698;SDS011;33708;49.466;11.176;2022-07-21T01:39:46;13.20;;;5.13;;
4698;SDS011;33708;49.466;11.176;2022-07-21T01:42:30;12.80;;;5.33;;
4698;SDS011;33708;49.466;11.176;2022-07-21T01:44:56;10.23;;;4.77;;
4698;SDS011;33708;49.466;11.176;2022-07-21T01:47:22;11.57;;;5.80;;
4698;SDS011;33708;49.466;11.176;2022-07-21T01:49:48;14.67;;;5.17;;
4698;SDS011;33708;49.466;11.176;2022-07-21T01:52:14;13.57;;;5.30;;
4698;SDS011;33708;49.466;11.176;2022-07-21T01:54:40;8.87;;;5.10;;
4698;SDS011;33708;49.466;11.176;2022-07-21T01:57:06;15.63;;;5.00;;
4698;SDS011;33708;49.466;11.176;2022-07-21T01:59:32;16.27;;;5.77;;
4698;SDS011;33708;49.466;11.176;2022-07-21T02:01:57;12.90;;;5.77;;
4698;SDS011;33708;49.466;11.176;2022-07-21T02:04:23;10.80;;;4.93;;
4698;SDS011;33708;49.466;11.176;2022-07-21T02:06:49;11.03;;;5.10;;
4698;SDS011;33708;49.466;11.176;2022-07-21T02:09:14;13.03;;;6.83;;
4698;SDS011;33708;49.466;11.176;2022-07-21T02:11:40;26.60;;;5.80;;
4698;SDS011;33708;49.466;11.176;2022-07-21T02:14:06;14.03;;;6.53;;
4698;SDS011;33708;49.466;11.176;2022-07-21T02:16:31;9.47;;;5.43;;
4698;SDS011;33708;49.466;11.176;2022-07-21T02:18:57;9.83;;;6.13;;
4698;SDS011;33708;49.466;11.176;2022-07-21T02:21:23;13.50;;;6.40;;
4698;SDS011;33708;49.466;11.176;2022-07-21T02:23:49;13.03;;;6.63;;
4698;SDS011;33708;49.466;11.176;2022-07-21T02:26:15;14.00;;;5.53;;
4698;SDS011;33708;49.466;11.176;2022-07-21T02:28:40;13.30;;;6.30;;
4698;SDS011;33708;49.466;11.176;2022-07-21T02:31:06;13.43;;;6.10;;
4698;SDS011;33708;49.466;11.176;2022-07-21T02:33:32;13.50;;;5.80;;
4698;SDS011;33708;49.466;11.176;2022-07-21T02:35:58;12.03;;;5.93;;
4698;SDS011;33708;49.466;11.176;2022-07-21T02:38:24;11.07;;;6.30;;
4698;SDS011;33708;49.466;11.176;2022-07-21T02:40:50;14.10;;;6.13;;
4698;SDS011;33708;49.466;11.176;2022-07-21T02:43:16;10.50;;;6.53;;
4698;SDS011;33708;49.466;11.176;2022-07-21T02:45:41;15.60;;;6.10;;
4698;SDS011;33708;49.466;11.176;2022-07-21T02:48:09;12.23;;;6.00;;
4698;SDS011;33708;49.466;11.176;2022-07-21T02:50:37;10.63;;;6.10;;
4698;SDS011;33708;49.466;11.176;2022-07-21T02:53:05;10.63;;;6.07;;
4698;SDS011;33708;49.466;11.176;2022-07-21T02:55:33;9.37;;;5.13;;
4698;SDS011;33708;49.466;11.176;2022-07-21T02:58:06;9.67;;;5.80;;
4698;SDS011;33708;49.466;11.176;2022-07-21T03:00:56;10.50;;;5.30;;
4698;SDS011;33708;49.466;11.176;2022-07-21T03:03:25;10.17;;;5.70;;
4698;SDS011;33708;49.466;11.176;2022-07-21T03:05:53;10.93;;;6.23;;
4698;SDS011;33708;49.466;11.176;2022-07-21T03:08:19;9.57;;;5.33;;
4698;SDS011;33708;49.466;11.176;2022-07-21T03:10:44;14.80;;;5.50;;
4698;SDS011;33708;49.466;11.176;2022-07-21T03:13:11;11.90;;;5.73;;
4698;SDS011;33708;49.466;11.176;2022-07-21T03:15:37;17.33;;;5.93;;
4698;SDS011;33708;49.466;11.176;2022-07-21T03:18:03;10.60;;;5.50;;
4698;SDS011;33708;49.466;11.176;2022-07-21T03:20:30;11.63;;;5.27;;
4698;SDS011;33708;49.466;11.176;2022-07-21T03:22:57;9.87;;;5.40;;
4698;SDS011;33708;49.466;11.176;2022-07-21T03:25:23;9.40;;;5.00;;
4698;SDS011;33708;49.466;11.176;2022-07-21T03:27:49;9.90;;;5.50;;
4698;SDS011;33708;49.466;11.176;2022-07-21T03:30:15;12.63;;;5.50;;
4698;SDS011;33708;49.466;11.176;2022-07-21T03:32:42;13.03;;;5.40;;
4698;SDS011;33708;49.466;11.176;2022-07-21T03:35:08;9.87;;;5.30;;
4698;SDS011;33708;49.466;11.176;2022-07-21T03:37:49;12.30;;;5.20;;
4698;SDS011;33708;49.466;11.176;2022-07-21T03:40:17;11.30;;;5.50;;
4698;SDS011;33708;49.466;11.176;2022-07-21T03:42:48;12.43;;;5.23;;
4698;SDS011;33708;49.466;11.176;2022-07-21T03:45:14;10.57;;;5.37;;
4698;SDS011;33708;49.466;11.176;2022-07-21T03:47:40;9.57;;;5.30;;
4698;SDS011;33708;49.466;11.176;2022-07-21T03:50:06;14.80;;;6.03;;
4698;SDS011;33708;49.466;11.176;2022-07-21T03:52:32;12.53;;;6.20;;
4698;SDS011;33708;49.466;11.176;2022-07-21T03:54:58;11.53;;;5.50;;
4698;SDS011;33708;49.466;11.176;2022-07-21T03:57:41;11.50;;;6.33;;
4698;SDS011;33708;49.466;11.176;2022-07-21T04:00:15;9.67;;;5.53;;
4698;SDS011;33708;49.466;11.176;2022-07-21T04:02:52;13.97;;;6.13;;
4698;SDS011;33708;49.466;11.176;2022-07-21T04:05:18;12.90;;;7.00;;
4698;SDS011;33708;49.466;11.176;2022-07-21T04:07:45;15.70;;;6.77;;
4698;SDS011;33708;49.466;11.176;2022-07-21T04:10:13;13.73;;;6.47;;
4698;SDS011;33708;49.466;11.176;2022-07-21T04:12:40;12.63;;;6.30;;
4698;SDS011;33708;49.466;11.176;2022-07-21T04:15:06;12.93;;;8.20;;
4698;SDS011;33708;49.466;11.176;2022-07-21T04:17:33;14.30;;;7.67;;
4698;SDS011;33708;49.466;11.176;2022-07-21T04:19:59;14.47;;;8.63;;
4698;SDS011;33708;49.466;11.176;2022-07-21T04:22:25;14.33;;;7.53;;
4698;SDS011;33708;49.466;11.176;2022-07-21T04:24:51;15.93;;;8.93;;
4698;SDS011;33708;49.466;11.176;2022-07-21T04:27:17;16.47;;;8.43;;
4698;SDS011;33708;49.466;11.176;2022-07-21T04:29:42;14.60;;;8.73;;
4698;SDS011;33708;49.466;11.176;2022-07-21T04:32:08;13.57;;;8.30;;
4698;SDS011;33708;49.466;11.176;2022-07-21T04:34:34;13.23;;;7.77;;
4698;SDS011;33708;49.466;11.176;2022-07-21T04:36:59;16.10;;;8.77;;
4698;SDS011;33708;49.466;11.176;2022-07-21T04:39:25;12.60;;;8.13;;
4698;SDS011;33708;49.466;11.176;2022-07-21T04:41:51;13.17;;;7.90;;
4698;SDS011;33708;49.466;11.176;2022-07-21T04:44:16;14.40;;;8.00;;
4698;SDS011;33708;49.466;11.176;2022-07-21T04:46:42;14.80;;;8.70;;
4698;SDS011;33708;49.466;11.176;2022-07-21T04:49:08;12.53;;;8.40;;
4698;SDS011;33708;49.466;11.176;2022-07-21T04:51:33;14.07;;;8.10;;
4698;SDS011;33708;49.466;11.176;2022-07-21T04:53:59;13.20;;;8.40;;
4698;SDS011;33708;49.466;11.176;2022-07-21T04:56:24;17.03;;;8.87;;
4698;SDS011;33708;49.466;11.176;2022-07-21T04:58:50;13.90;;;8.23;;
4698;SDS011;33708;49.466;11.176;2022-07-21T05:01:16;12.70;;;8.53;;
4698;SDS011;33708;49.466;11.176;2022-07-21T05:03:43;14.70;;;8.90;;
4698;SDS011;33708;49.466;11.176;2022-07-21T05:06:09;16.27;;;9.20;;
4698;SDS011;33708;49.466;11.176;2022-07-21T05:08:35;15.50;;;9.20;;
4698;SDS011;33708;49.466;11.176;2022-07-21T05:11:01;13.33;;;9.00;;
4698;SDS011;33708;49.466;11.176;2022-07-21T05:13:29;11.90;;;8.23;;
4698;SDS011;33708;49.466;11.176;2022-07-21T05:15:55;17.90;;;9.60;;
4698;SDS011;33708;49.466;11.176;2022-07-21T05:18:20;20.63;;;11.50;;
4698;SDS011;33708;49.466;11.176;2022-07-21T05:20:46;17.17;;;10.20;;
4698;SDS011;33708;49.466;11.176;2022-07-21T05:23:12;18.70;;;10.73;;
4698;SDS011;33708;49.466;11.176;2022-07-21T05:25:37;17.50;;;11.03;;
4698;SDS011;33708;49.466;11.176;2022-07-21T05:28:05;18.33;;;10.27;;
4698;SDS011;33708;49.466;11.176;2022-07-21T05:30:30;17.47;;;11.00;;
4698;SDS011;33708;49.466;11.176;2022-07-21T05:32:56;24.03;;;12.57;;
4698;SDS011;33708;49.466;11.176;2022-07-21T05:35:22;20.37;;;13.17;;
4698;SDS011;33708;49.466;11.176;2022-07-21T05:37:47;17.63;;;12.83;;
4698;SDS011;33708;49.466;11.176;2022-07-21T05:40:13;18.20;;;11.63;;
4698;SDS011;33708;49.466;11.176;2022-07-21T05:42:39;18.33;;;11.60;;
4698;SDS011;33708;49.466;11.176;2022-07-21T05:45:08;18.70;;;11.00;;
4698;SDS011;33708;49.466;11.176;2022-07-21T05:47:34;17.90;;;11.87;;
4698;SDS011;33708;49.466;11.176;2022-07-21T05:50:00;19.10;;;14.17;;
4698;SDS011;33708;49.466;11.176;2022-07-21T05:52:26;19.33;;;12.87;;
4698;SDS011;33708;49.466;11.176;2022-07-21T05:54:52;17.90;;;12.60;;
4698;SDS011;33708;49.466;11.176;2022-07-21T05:57:17;24.67;;;13.80;;
4698;SDS011;33708;49.466;11.176;2022-07-21T05:59:44;19.83;;;13.50;;
4698;SDS011;33708;49.466;11.176;2022-07-21T06:02:10;17.83;;;13.10;;
4698;SDS011;33708;49.466;11.176;2022-07-21T06:04:35;22.00;;;14.83;;
4698;SDS011;33708;49.466;11.176;2022-07-21T06:07:01;24.83;;;16.37;;
4698;SDS011;33708;49.466;11.176;2022-07-21T06:09:27;24.97;;;13.90;;
4698;SDS011;33708;49.466;11.176;2022-07-21T06:11:53;19.70;;;14.50;;
4698;SDS011;33708;49.466;11.176;2022-07-21T06:14:18;20.17;;;14.50;;
4698;SDS011;33708;49.466;11.176;2022-07-21T06:16:44;22.60;;;14.60;;
4698;SDS011;33708;49.466;11.176;2022-07-21T06:19:10;18.70;;;14.30;;
4698;SDS011;33708;49.466;11.176;2022-07-21T06:21:36;21.40;;;14.90;;
4698;SDS011;33708;49.466;11.176;2022-07-21T06:24:01;19.20;;;14.97;;
4698;SDS011;33708;49.466;11.176;2022-07-21T06:26:27;22.07;;;15.50;;
4698;SDS011;33708;49.466;11.176;2022-07-21T06:28:53;24.13;;;15.30;;
4698;SDS011;33708;49.466;11.176;2022-07-21T06:31:25;21.90;;;15.33;;
4698;SDS011;33708;49.466;11.176;2022-07-21T06:33:51;22.97;;;15.80;;
4698;SDS011;33708;49.466;11.176;2022-07-21T06:36:16;26.90;;;13.57;;
4698;SDS011;33708;49.466;11.176;2022-07-21T06:38:42;21.80;;;15.17;;
4698;SDS011;33708;49.466;11.176;2022-07-21T06:41:09;24.43;;;15.90;;
4698;SDS011;33708;49.466;11.176;2022-07-21T06:43:35;21.97;;;16.10;;
4698;SDS011;33708;49.466;11.176;2022-07-21T06:46:01;20.67;;;15.40;;
4698;SDS011;33708;49.466;11.176;2022-07-21T06:48:27;21.77;;;16.13;;
4698;SDS011;33708;49.466;11.176;2022-07-21T06:50:54;23.93;;;16.70;;
4698;SDS011;33708;49.466;11.176;2022-07-21T06:53:20;22.30;;;15.90;;
4698;SDS011;33708;49.466;11.176;2022-07-21T06:55:47;25.73;;;16.53;;
4698;SDS011;33708;49.466;11.176;2022-07-21T06:58:16;20.90;;;15.20;;
4698;SDS011;33708;49.466;11.176;2022-07-21T07:00:43;21.63;;;17.10;;
4698;SDS011;33708;49.466;11.176;2022-07-21T07:03:10;19.90;;;15.87;;
4698;SDS011;33708;49.466;11.176;2022-07-21T07:05:36;28.10;;;16.73;;
4698;SDS011;33708;49.466;11.176;2022-07-21T07:08:03;25.03;;;17.27;;
4698;SDS011;33708;49.466;11.176;2022-07-21T07:10:29;25.10;;;16.60;;
4698;SDS011;33708;49.466;11.176;2022-07-21T07:12:55;23.77;;;15.40;;
4698;SDS011;33708;49.466;11.176;2022-07-21T07:15:21;20.10;;;16.10;;
4698;SDS011;33708;49.466;11.176;2022-07-21T07:17:48;23.20;;;17.30;;
4698;SDS011;33708;49.466;11.176;2022-07-21T07:20:14;25.30;;;19.20;;
4698;SDS011;33708;49.466;11.176;2022-07-21T07:22:40;22.43;;;15.93;;
4698;SDS011;33708;49.466;11.176;2022-07-21T07:25:06;21.90;;;16.43;;
4698;SDS011;33708;49.466;11.176;2022-07-21T07:27:32;22.33;;;17.73;;
4698;SDS011;33708;49.466;11.176;2022-07-21T07:29:59;25.27;;;16.90;;
4698;SDS011;33708;49.466;11.176;2022-07-21T07:32:25;24.47;;;17.00;;
4698;SDS011;33708;49.466;11.176;2022-07-21T07:34:51;22.53;;;17.20;;
4698;SDS011;33708;49.466;11.176;2022-07-21T07:37:16;23.37;;;16.80;;
4698;SDS011;33708;49.466;11.176;2022-07-21T07:39:42;19.47;;;15.87;;
4698;SDS011;33708;49.466;11.176;2022-07-21T07:42:07;20.97;;;16.47;;
4698;SDS011;33708;49.466;11.176;2022-07-21T07:44:33;23.83;;;16.87;;
4698;SDS011;33708;49.466;11.176;2022-07-21T07:46:59;21.53;;;16.50;;
4698;SDS011;33708;49.466;11.176;2022-07-21T07:49:28;20.73;;;15.77;;
4698;SDS011;33708;49.466;11.176;2022-07-21T07:51:54;22.47;;;17.87;;
4698;SDS011;33708;49.466;11.176;2022-07-21T07:54:20;24.20;;;18.40;;
4698;SDS011;33708;49.466;11.176;2022-07-21T07:56:46;22.87;;;15.77;;
4698;SDS011;33708;49.466;11.176;2022-07-21T07:59:15;20.70;;;15.70;;
4698;SDS011;33708;49.466;11.176;2022-07-21T08:01:41;23.40;;;16.10;;
4698;SDS011;33708;49.466;11.176;2022-07-21T08:04:06;22.47;;;15.60;;
4698;SDS011;33708;49.466;11.176;2022-07-21T08:06:32;22.20;;;14.00;;
4698;SDS011;33708;49.466;11.176;2022-07-21T08:08:58;20.47;;;16.00;;
4698;SDS011;33708;49.466;11.176;2022-07-21T08:11:24;21.17;;;15.50;;
4698;SDS011;33708;49.466;11.176;2022-07-21T08:13:50;21.33;;;15.13;;
4698;SDS011;33708;49.466;11.176;2022-07-21T08:16:15;21.27;;;15.57;;
4698;SDS011;33708;49.466;11.176;2022-07-21T08:18:41;21.30;;;14.53;;
4698;SDS011;33708;49.466;11.176;2022-07-21T08:21:07;20.13;;;13.90;;
4698;SDS011;33708;49.466;11.176;2022-07-21T08:23:34;23.17;;;16.00;;
4698;SDS011;33708;49.466;11.176;2022-07-21T08:25:59;20.97;;;15.07;;
4698;SDS011;33708;49.466;11.176;2022-07-21T08:28:25;20.73;;;15.03;;
4698;SDS011;33708;49.466;11.176;2022-07-21T08:30:51;20.23;;;14.67;;
4698;SDS011;33708;49.466;11.176;2022-07-21T08:33:17;18.87;;;14.77;;
4698;SDS011;33708;49.466;11.176;2022-07-21T08:35:42;20.83;;;14.90;;
4698;SDS011;33708;49.466;11.176;2022-07-21T08:38:09;19.90;;;15.23;;
4698;SDS011;33708;49.466;11.176;2022-07-21T08:40:38;23.80;;;15.93;;
4698;SDS011;33708;49.466;11.176;2022-07-21T08:43:10;19.53;;;14.83;;
4698;SDS011;33708;49.466;11.176;2022-07-21T08:45:38;18.57;;;13.77;;
4698;SDS011;33708;49.466;11.176;2022-07-21T08:48:04;18.00;;;13.97;;
4698;SDS011;33708;49.466;11.176;2022-07-21T08:50:32;17.97;;;14.50;;
4698;SDS011;33708;49.466;11.176;2022-07-21T08:53:00;21.07;;;13.63;;
4698;SDS011;33708;49.466;11.176;2022-07-21T08:55:29;20.40;;;13.90;;
4698;SDS011;33708;49.466;11.176;2022-07-21T08:57:56;17.97;;;13.80;;
4698;SDS011;33708;49.466;11.176;2022-07-21T09:00:22;21.23;;;12.80;;
4698;SDS011;33708;49.466;11.176;2022-07-21T09:02:47;17.27;;;13.03;;
4698;SDS011;33708;49.466;11.176;2022-07-21T09:05:13;15.60;;;12.70;;
4698;SDS011;33708;49.466;11.176;2022-07-21T09:07:48;20.97;;;11.50;;
4698;SDS011;33708;49.466;11.176;2022-07-21T09:10:23;22.80;;;11.83;;
4698;SDS011;33708;49.466;11.176;2022-07-21T09:12:56;19.10;;;12.77;;
4698;SDS011;33708;49.466;11.176;2022-07-21T09:15:31;15.70;;;12.60;;
4698;SDS011;33708;49.466;11.176;2022-07-21T09:18:04;16.93;;;11.87;;
4698;SDS011;33708;49.466;11.176;2022-07-21T09:20:33;15.90;;;10.40;;
4698;SDS011;33708;49.466;11.176;2022-07-21T09:23:09;13.60;;;9.87;;
4698;SDS011;33708;49.466;11.176;2022-07-21T09:25:38;17.67;;;10.20;;
4698;SDS011;33708;49.466;11.176;2022-07-21T09:28:10;14.80;;;10.40;;
4698;SDS011;33708;49.466;11.176;2022-07-21T09:33:42;14.83;;;9.90;;
4698;SDS011;33708;49.466;11.176;2022-07-21T09:36:14;16.03;;;10.07;;
4698;SDS011;33708;49.466;11.176;2022-07-21T09:43:37;19.90;;;10.17;;
4698;SDS011;33708;49.466;11.176;2022-07-21T09:46:11;16.23;;;9.37;;
4698;SDS011;33708;49.466;11.176;2022-07-21T09:48:43;14.03;;;8.80;;
4698;SDS011;33708;49.466;11.176;2022-07-21T09:56:20;16.20;;;9.73;;
4698;SDS011;33708;49.466;11.176;2022-07-21T09:58:47;14.37;;;9.00;;
4698;SDS011;33708;49.466;11.176;2022-07-21T10:01:15;12.80;;;8.47;;
4698;SDS011;33708;49.466;11.176;2022-07-21T10:03:44;15.10;;;9.17;;
4698;SDS011;33708;49.466;11.176;2022-07-21T10:06:14;14.53;;;8.07;;
4698;SDS011;33708;49.466;11.176;2022-07-21T10:08:42;15.03;;;8.83;;
4698;SDS011;33708;49.466;11.176;2022-07-21T10:11:09;14.93;;;8.30;;
4698;SDS011;33708;49.466;11.176;2022-07-21T10:13:36;14.30;;;7.80;;
4698;SDS011;33708;49.466;11.176;2022-07-21T10:16:03;10.80;;;8.30;;
4698;SDS011;33708;49.466;11.176;2022-07-21T10:18:30;13.40;;;8.03;;
4698;SDS011;33708;49.466;11.176;2022-07-21T10:23:59;11.13;;;7.63;;
4698;SDS011;33708;49.466;11.176;2022-07-21T10:26:26;11.73;;;7.73;;
4698;SDS011;33708;49.466;11.176;2022-07-21T10:28:52;12.10;;;8.80;;
4698;SDS011;33708;49.466;11.176;2022-07-21T10:31:19;10.70;;;7.30;;
4698;SDS011;33708;49.466;11.176;2022-07-21T10:41:39;12.20;;;7.47;;
4698;SDS011;33708;49.466;11.176;2022-07-21T10:57:37;11.17;;;7.23;;
4698;SDS011;33708;49.466;11.176;2022-07-21T11:02:57;10.90;;;7.10;;
4698;SDS011;33708;49.466;11.176;2022-07-21T11:05:25;10.37;;;6.40;;
4698;SDS011;33708;49.466;11.176;2022-07-21T11:10:40;16.53;;;7.20;;
4698;SDS011;33708;49.466;11.176;2022-07-21T11:13:11;13.87;;;7.50;;
4698;SDS011;33708;49.466;11.176;2022-07-21T11:15:45;11.13;;;7.43;;
4698;SDS011;33708;49.466;11.176;2022-07-21T11:18:19;10.50;;;6.87;;
4698;SDS011;33708;49.466;11.176;2022-07-21T11:26:23;10.07;;;5.50;;
4698;SDS011;33708;49.466;11.176;2022-07-21T11:29:02;9.90;;;5.37;;
4698;SDS011;33708;49.466;11.176;2022-07-21T11:31:30;8.93;;;4.50;;
4698;SDS011;33708;49.466;11.176;2022-07-21T11:33:56;8.60;;;4.70;;
4698;SDS011;33708;49.466;11.176;2022-07-21T11:36:26;9.87;;;4.93;;
4698;SDS011;33708;49.466;11.176;2022-07-21T11:39:00;9.60;;;3.87;;
4698;SDS011;33708;49.466;11.176;2022-07-21T11:41:29;8.60;;;4.43;;
4698;SDS011;33708;49.466;11.176;2022-07-21T11:43:55;9.40;;;4.50;;
4698;SDS011;33708;49.466;11.176;2022-07-21T11:46:21;10.77;;;4.60;;
4698;SDS011;33708;49.466;11.176;2022-07-21T11:48:47;9.43;;;4.80;;
4698;SDS011;33708;49.466;11.176;2022-07-21T11:51:12;10.07;;;4.70;;
4698;SDS011;33708;49.466;11.176;2022-07-21T11:53:44;8.80;;;4.73;;
4698;SDS011;33708;49.466;11.176;2022-07-21T11:56:16;10.87;;;5.00;;
4698;SDS011;33708;49.466;11.176;2022-07-21T11:58:42;7.87;;;4.53;;
4698;SDS011;33708;49.466;11.176;2022-07-21T12:01:08;10.13;;;4.60;;
4698;SDS011;33708;49.466;11.176;2022-07-21T12:03:35;9.57;;;4.47;;
4698;SDS011;33708;49.466;11.176;2022-07-21T12:06:15;8.93;;;4.63;;
4698;SDS011;33708;49.466;11.176;2022-07-21T12:08:42;9.17;;;4.57;;
4698;SDS011;33708;49.466;11.176;2022-07-21T12:11:09;9.23;;;4.90;;
4698;SDS011;33708;49.466;11.176;2022-07-21T12:13:55;14.50;;;4.70;;
4698;SDS011;33708;49.466;11.176;2022-07-21T12:16:27;11.30;;;4.33;;
4698;SDS011;33708;49.466;11.176;2022-07-21T12:19:09;8.03;;;4.63;;
4698;SDS011;33708;49.466;11.176;2022-07-21T12:24:13;8.00;;;3.90;;
4698;SDS011;33708;49.466;11.176;2022-07-21T12:26:38;8.43;;;4.20;;
4698;SDS011;33708;49.466;11.176;2022-07-21T12:29:04;8.47;;;4.63;;
4698;SDS011;33708;49.466;11.176;2022-07-21T12:31:32;11.00;;;5.00;;
4698;SDS011;33708;49.466;11.176;2022-07-21T12:34:14;10.30;;;4.53;;
4698;SDS011;33708;49.466;11.176;2022-07-21T12:36:43;9.97;;;4.40;;
4698;SDS011;33708;49.466;11.176;2022-07-21T12:39:18;7.87;;;4.00;;
4698;SDS011;33708;49.466;11.176;2022-07-21T12:42:07;8.60;;;4.47;;
4698;SDS011;33708;49.466;11.176;2022-07-21T12:44:35;10.00;;;3.90;;
4698;SDS011;33708;49.466;11.176;2022-07-21T12:47:14;8.93;;;3.70;;
4698;SDS011;33708;49.466;11.176;2022-07-21T12:49:56;8.57;;;3.83;;
4698;SDS011;33708;49.466;11.176;2022-07-21T12:52:24;7.50;;;4.43;;
4698;SDS011;33708;49.466;11.176;2022-07-21T12:54:50;8.47;;;3.73;;
4698;SDS011;33708;49.466;11.176;2022-07-21T12:57:16;11.70;;;4.47;;
4698;SDS011;33708;49.466;11.176;2022-07-21T12:59:42;9.80;;;3.80;;
4698;SDS011;33708;49.466;11.176;2022-07-21T13:02:08;9.33;;;4.63;;
4698;SDS011;33708;49.466;11.176;2022-07-21T13:04:34;10.10;;;4.87;;
4698;SDS011;33708;49.466;11.176;2022-07-21T13:06:59;9.53;;;4.30;;
4698;SDS011;33708;49.466;11.176;2022-07-21T13:09:25;9.47;;;4.37;;
4698;SDS011;33708;49.466;11.176;2022-07-21T13:11:50;9.00;;;4.67;;
4698;SDS011;33708;49.466;11.176;2022-07-21T13:14:16;7.73;;;4.33;;
4698;SDS011;33708;49.466;11.176;2022-07-21T13:16:44;9.80;;;4.07;;
4698;SDS011;33708;49.466;11.176;2022-07-21T13:19:10;11.03;;;4.70;;
4698;SDS011;33708;49.466;11.176;2022-07-21T13:21:36;7.67;;;4.10;;
4698;SDS011;33708;49.466;11.176;2022-07-21T13:24:01;7.93;;;4.23;;
4698;SDS011;33708;49.466;11.176;2022-07-21T13:26:27;10.93;;;4.57;;
4698;SDS011;33708;49.466;11.176;2022-07-21T13:28:56;13.43;;;4.00;;
4698;SDS011;33708;49.466;11.176;2022-07-21T13:31:21;9.33;;;4.23;;
4698;SDS011;33708;49.466;11.176;2022-07-21T13:33:47;7.30;;;3.70;;
4698;SDS011;33708;49.466;11.176;2022-07-21T13:36:13;9.77;;;4.63;;
4698;SDS011;33708;49.466;11.176;2022-07-21T13:38:38;16.57;;;4.23;;
4698;SDS011;33708;49.466;11.176;2022-07-21T13:41:04;10.10;;;3.57;;
4698;SDS011;33708;49.466;11.176;2022-07-21T13:43:31;8.03;;;4.00;;
4698;SDS011;33708;49.466;11.176;2022-07-21T13:45:57;8.60;;;4.10;;
4698;SDS011;33708;49.466;11.176;2022-07-21T13:48:22;11.10;;;4.77;;
4698;SDS011;33708;49.466;11.176;2022-07-21T13:50:48;10.30;;;4.57;;
4698;SDS011;33708;49.466;11.176;2022-07-21T13:53:14;8.70;;;4.60;;
4698;SDS011;33708;49.466;11.176;2022-07-21T13:55:39;8.23;;;4.40;;
4698;SDS011;33708;49.466;11.176;2022-07-21T13:58:05;8.60;;;4.30;;
4698;SDS011;33708;49.466;11.176;2022-07-21T14:00:33;8.93;;;4.20;;
4698;SDS011;33708;49.466;11.176;2022-07-21T14:02:59;9.33;;;5.07;;
4698;SDS011;33708;49.466;11.176;2022-07-21T14:05:25;7.77;;;4.13;;
4698;SDS011;33708;49.466;11.176;2022-07-21T14:07:51;8.50;;;4.37;;
4698;SDS011;33708;49.466;11.176;2022-07-21T14:10:16;8.40;;;4.47;;
4698;SDS011;33708;49.466;11.176;2022-07-21T14:12:42;9.43;;;4.03;;
4698;SDS011;33708;49.466;11.176;2022-07-21T14:15:08;9.07;;;3.97;;
4698;SDS011;33708;49.466;11.176;2022-07-21T14:17:34;10.67;;;4.20;;
4698;SDS011;33708;49.466;11.176;2022-07-21T14:19:59;9.60;;;4.40;;
4698;SDS011;33708;49.466;11.176;2022-07-21T14:22:25;9.03;;;4.13;;
4698;SDS011;33708;49.466;11.176;2022-07-21T14:24:50;12.83;;;4.03;;
4698;SDS011;33708;49.466;11.176;2022-07-21T14:27:35;7.70;;;4.10;;
4698;SDS011;33708;49.466;11.176;2022-07-21T14:30:00;9.63;;;4.50;;
4698;SDS011;33708;49.466;11.176;2022-07-21T14:32:26;8.97;;;4.30;;
4698;SDS011;33708;49.466;11.176;2022-07-21T14:34:52;11.03;;;4.00;;
4698;SDS011;33708;49.466;11.176;2022-07-21T14:37:19;8.97;;;4.30;;
4698;SDS011;33708;49.466;11.176;2022-07-21T14:39:46;9.83;;;4.20;;
4698;SDS011;33708;49.466;11.176;2022-07-21T14:42:13;9.07;;;4.17;;
4698;SDS011;33708;49.466;11.176;2022-07-21T14:44:39;9.90;;;4.17;;
4698;SDS011;33708;49.466;11.176;2022-07-21T14:47:05;10.70;;;3.97;;
4698;SDS011;33708;49.466;11.176;2022-07-21T14:49:33;13.40;;;4.83;;
4698;SDS011;33708;49.466;11.176;2022-07-21T14:51:59;12.13;;;4.50;;
4698;SDS011;33708;49.466;11.176;2022-07-21T14:54:25;9.13;;;4.10;;
4698;SDS011;33708;49.466;11.176;2022-07-21T14:56:51;15.53;;;4.87;;
4698;SDS011;33708;49.466;11.176;2022-07-21T14:59:17;11.63;;;4.00;;
4698;SDS011;33708;49.466;11.176;2022-07-21T15:01:43;9.73;;;4.60;;
4698;SDS011;33708;49.466;11.176;2022-07-21T15:04:09;14.30;;;4.47;;
4698;SDS011;33708;49.466;11.176;2022-07-21T15:06:34;10.23;;;4.60;;
4698;SDS011;33708;49.466;11.176;2022-07-21T15:09:00;10.23;;;4.53;;
4698;SDS011;33708;49.466;11.176;2022-07-21T15:11:25;11.47;;;4.77;;
4698;SDS011;33708;49.466;11.176;2022-07-21T15:13:51;8.50;;;4.57;;
4698;SDS011;33708;49.466;11.176;2022-07-21T15:16:20;10.00;;;4.90;;
4698;SDS011;33708;49.466;11.176;2022-07-21T15:18:45;9.70;;;4.70;;
4698;SDS011;33708;49.466;11.176;2022-07-21T15:21:11;13.50;;;4.00;;
4698;SDS011;33708;49.466;11.176;2022-07-21T15:23:37;11.93;;;4.40;;
4698;SDS011;33708;49.466;11.176;2022-07-21T15:26:03;9.27;;;5.10;;